createdAt,value
2022-11-17T00:01:09.216Z,18.10
2022-11-17T00:03:15.055Z,18.10
2022-11-17T00:05:17.256Z,18.10
2022-11-17T00:07:19.003Z,18.10
2022-11-17T00:09:20.817Z,18.10
2022-11-17T00:11:22.600Z,18.10
2022-11-17T00:13:24.390Z,18.10
2022-11-17T00:15:26.435Z,18.10
2022-11-17T00:17:28.925Z,18.10
2022-11-17T00:19:30.708Z,18.10
2022-11-17T00:21:32.615Z,18.10
2022-11-17T00:23:34.478Z,18.10
2022-11-17T00:25:37.410Z,18.00
2022-11-17T00:27:39.116Z,18.10
2022-11-17T00:29:40.884Z,18.10
2022-11-17T00:31:42.611Z,18.10
2022-11-17T00:33:44.349Z,18.10
2022-11-17T00:35:49.986Z,18.10
2022-11-17T00:37:51.806Z,18.10
2022-11-17T00:39:59.290Z,18.10
2022-11-17T00:42:02.379Z,18.10
2022-11-17T00:44:04.724Z,18.10
2022-11-17T00:46:06.516Z,18.10
2022-11-17T00:48:08.201Z,18.00
2022-11-17T00:50:10.255Z,18.10
2022-11-17T00:52:11.953Z,18.10
2022-11-17T00:54:13.985Z,18.10
2022-11-17T00:56:15.736Z,18.10
2022-11-17T00:58:17.477Z,18.10
2022-11-17T01:00:19.211Z,18.10
2022-11-17T01:02:21.048Z,18.10
2022-11-17T01:04:22.740Z,18.10
2022-11-17T01:06:24.471Z,18.00
2022-11-17T01:08:26.191Z,18.00
2022-11-17T01:10:27.973Z,18.10
2022-11-17T01:12:29.661Z,18.10
2022-11-17T01:14:31.432Z,18.00
2022-11-17T01:16:33.326Z,18.10
2022-11-17T01:18:35.356Z,18.00
2022-11-17T01:20:37.094Z,18.10
2022-11-17T01:22:38.824Z,18.00
2022-11-17T01:24:40.560Z,18.00
2022-11-17T01:26:42.948Z,18.00
2022-11-17T01:28:44.880Z,18.00
2022-11-17T01:30:46.609Z,18.00
2022-11-17T01:32:48.334Z,18.00
2022-11-17T01:34:50.932Z,18.00
2022-11-17T01:36:52.648Z,18.00
2022-11-17T01:38:54.791Z,18.00
2022-11-17T01:41:00.221Z,18.00
2022-11-17T01:43:05.103Z,18.00
2022-11-17T01:45:20.562Z,18.00
2022-11-17T01:47:49.244Z,18.00
2022-11-17T01:49:52.639Z,18.00
2022-11-17T01:52:02.048Z,18.00
2022-11-17T01:54:04.650Z,18.00
2022-11-17T01:56:08.437Z,18.00
2022-11-17T01:58:30.078Z,18.00
2022-11-17T02:00:31.930Z,18.00
2022-11-17T02:02:34.597Z,18.00
2022-11-17T02:04:41.693Z,18.00
2022-11-17T02:06:43.428Z,18.00
2022-11-17T02:08:46.388Z,18.00
2022-11-17T02:10:51.748Z,18.00
2022-11-17T02:12:53.927Z,18.00
2022-11-17T02:14:55.608Z,18.00
2022-11-17T02:17:00.991Z,18.00
2022-11-17T02:19:07.012Z,17.90
2022-11-17T02:21:27.568Z,17.90
2022-11-17T02:23:29.257Z,17.90
2022-11-17T02:25:49.799Z,17.90
2022-11-17T02:28:10.479Z,17.90
2022-11-17T02:30:19.354Z,17.90
2022-11-17T02:32:34.665Z,17.90
2022-11-17T02:34:47.772Z,17.90
2022-11-17T02:36:57.914Z,18.00
2022-11-17T02:39:14.899Z,18.00
2022-11-17T02:41:16.812Z,18.00
2022-11-17T02:43:20.459Z,17.90
2022-11-17T02:45:25.503Z,18.00
2022-11-17T02:47:28.545Z,18.00
2022-11-17T02:49:38.285Z,18.00
2022-11-17T02:51:41.022Z,17.90
2022-11-17T02:53:43.016Z,18.00
2022-11-17T02:55:52.016Z,18.00
2022-11-17T03:00:38.753Z,17.90
2022-11-17T03:03:03.417Z,17.90
2022-11-17T03:05:09.491Z,17.90
2022-11-17T03:07:30.105Z,17.90
2022-11-17T03:09:57.830Z,17.90
2022-11-17T03:12:05.389Z,17.90
2022-11-17T03:14:10.389Z,18.00
2022-11-17T03:16:27.596Z,17.90
2022-11-17T03:18:34.612Z,17.90
2022-11-17T03:20:39.271Z,17.90
2022-11-17T03:22:49.722Z,17.80
2022-11-17T03:24:53.666Z,17.90
2022-11-17T03:26:57.274Z,17.90
2022-11-17T03:28:59.977Z,18.00
2022-11-17T03:31:04.813Z,18.00
2022-11-17T03:33:12.360Z,17.90
2022-11-17T03:35:17.121Z,18.00
2022-11-17T03:37:21.175Z,17.90
2022-11-17T03:39:25.387Z,17.90
2022-11-17T03:41:29.767Z,17.90
2022-11-17T03:43:31.796Z,17.90
2022-11-17T03:45:42.761Z,17.90
2022-11-17T03:47:45.136Z,17.90
2022-11-17T03:49:56.638Z,17.90
2022-11-17T03:51:58.709Z,17.90
2022-11-17T03:54:01.082Z,17.90
2022-11-17T03:56:06.069Z,17.90
2022-11-17T03:58:10.939Z,17.90
2022-11-17T04:00:14.663Z,17.90
2022-11-17T04:02:20.656Z,17.90
2022-11-17T04:04:22.862Z,17.90
2022-11-17T04:06:24.819Z,17.90
2022-11-17T04:08:26.903Z,18.00
2022-11-17T04:10:29.089Z,17.90
2022-11-17T04:12:31.115Z,17.90
2022-11-17T04:14:33.273Z,17.90
2022-11-17T04:16:35.466Z,17.90
2022-11-17T04:18:37.516Z,17.80
2022-11-17T04:20:39.605Z,17.80
2022-11-17T04:22:41.796Z,17.80
2022-11-17T04:24:43.820Z,17.90
2022-11-17T04:26:46.011Z,17.90
2022-11-17T04:28:49.331Z,17.80
2022-11-17T04:30:51.529Z,17.80
2022-11-17T04:32:54.000Z,17.90
2022-11-17T04:34:56.110Z,17.90
2022-11-17T04:36:58.198Z,17.80
2022-11-17T04:39:00.398Z,17.90
2022-11-17T04:41:03.818Z,17.80
2022-11-17T04:43:07.197Z,17.80
2022-11-17T04:45:09.481Z,17.90
2022-11-17T04:47:11.619Z,17.80
2022-11-17T04:49:14.558Z,17.90
2022-11-17T04:51:16.919Z,17.90
2022-11-17T04:53:18.968Z,17.70
2022-11-17T04:55:20.962Z,17.80
2022-11-17T04:57:22.900Z,17.90
2022-11-17T04:59:24.998Z,17.80
2022-11-17T05:01:27.562Z,17.70
2022-11-17T05:03:30.449Z,17.90
2022-11-17T05:05:32.391Z,17.80
2022-11-17T05:07:34.541Z,17.80
2022-11-17T05:09:36.592Z,17.80
2022-11-17T05:11:38.957Z,17.80
2022-11-17T05:13:41.004Z,17.70
2022-11-17T05:15:43.012Z,17.80
2022-11-17T05:17:45.054Z,17.80
2022-11-17T05:19:47.881Z,17.80
2022-11-17T05:21:50.042Z,17.80
2022-11-17T05:23:52.064Z,17.80
2022-11-17T05:25:54.029Z,17.80
2022-11-17T05:27:56.185Z,17.80
2022-11-17T05:29:58.110Z,17.70
2022-11-17T05:32:00.278Z,17.70
2022-11-17T05:34:02.675Z,17.80
2022-11-17T05:36:04.937Z,17.70
2022-11-17T05:38:07.084Z,17.70
2022-11-17T05:40:09.491Z,17.80
2022-11-17T05:42:11.684Z,17.80
2022-11-17T05:44:13.662Z,17.80
2022-11-17T05:46:16.013Z,17.80
2022-11-17T05:48:18.202Z,17.80
2022-11-17T05:50:20.300Z,17.80
2022-11-17T05:52:22.445Z,17.80
2022-11-17T05:54:24.440Z,17.80
2022-11-17T05:56:27.394Z,17.80
2022-11-17T05:58:31.449Z,17.80
2022-11-17T06:00:33.812Z,17.80
2022-11-17T06:02:42.024Z,17.80
2022-11-17T06:04:44.220Z,17.70
2022-11-17T06:06:46.705Z,17.90
2022-11-17T06:08:49.245Z,17.80
2022-11-17T06:10:52.433Z,17.80
2022-11-17T06:12:54.463Z,17.80
2022-11-17T06:14:56.437Z,17.70
2022-11-17T06:17:01.043Z,17.70
2022-11-17T06:19:09.519Z,17.70
2022-11-17T06:21:14.018Z,17.70
2022-11-17T06:23:17.211Z,17.70
2022-11-17T06:25:19.937Z,17.80
2022-11-17T06:27:22.198Z,17.70
2022-11-17T06:29:24.414Z,17.80
2022-11-17T06:31:26.980Z,17.80
2022-11-17T06:33:30.554Z,17.70
2022-11-17T06:35:33.445Z,17.70
2022-11-17T06:37:35.360Z,17.70
2022-11-17T06:39:37.072Z,17.70
2022-11-17T06:41:38.969Z,17.70
2022-11-17T06:43:40.697Z,17.70
2022-11-17T06:45:44.097Z,17.70
2022-11-17T06:47:45.800Z,17.70
2022-11-17T06:49:47.604Z,17.70
2022-11-17T06:51:49.293Z,17.70
2022-11-17T06:53:51.134Z,17.70
2022-11-17T06:55:54.494Z,17.70
2022-11-17T06:57:59.756Z,17.70
2022-11-17T07:00:01.619Z,17.70
2022-11-17T07:02:03.563Z,17.70
2022-11-17T07:04:05.359Z,17.70
2022-11-17T07:06:08.467Z,17.70
2022-11-17T07:08:10.276Z,17.70
2022-11-17T07:10:12.098Z,17.70
2022-11-17T07:12:13.848Z,17.70
2022-11-17T07:14:15.699Z,17.70
2022-11-17T07:16:23.175Z,17.70
2022-11-17T07:18:25.521Z,17.70
2022-11-17T07:20:27.430Z,17.70
2022-11-17T07:22:29.447Z,17.70
2022-11-17T07:24:31.183Z,17.70
2022-11-17T07:26:33.056Z,17.70
2022-11-17T07:28:35.356Z,17.70
2022-11-17T07:30:37.419Z,17.70
2022-11-17T07:32:39.195Z,17.70
2022-11-17T07:34:41.229Z,17.70
2022-11-17T07:36:42.992Z,17.80
2022-11-17T07:38:44.854Z,17.80
2022-11-17T07:40:46.615Z,17.80
2022-11-17T07:42:48.881Z,17.70
2022-11-17T07:44:51.922Z,17.80
2022-11-17T07:46:54.338Z,17.70
2022-11-17T07:48:56.254Z,17.80
2022-11-17T07:50:58.658Z,17.80
2022-11-17T07:53:00.424Z,17.80
2022-11-17T07:55:02.235Z,17.80
2022-11-17T07:57:04.048Z,17.70
2022-11-17T07:59:05.866Z,17.80
2022-11-17T08:01:08.390Z,17.80
2022-11-17T08:03:10.266Z,17.70
2022-11-17T08:05:12.024Z,17.80
2022-11-17T08:07:13.867Z,17.80
2022-11-17T08:09:15.812Z,17.80
2022-11-17T08:11:17.663Z,17.70
2022-11-17T08:13:19.407Z,17.80
2022-11-17T08:15:21.580Z,17.80
2022-11-17T08:17:23.335Z,17.70
2022-11-17T08:19:25.120Z,17.70
2022-11-17T08:21:26.897Z,17.70
2022-11-17T08:23:28.743Z,17.80
2022-11-17T08:25:30.529Z,17.80
2022-11-17T08:27:32.383Z,17.70
2022-11-17T08:29:34.124Z,17.70
2022-11-17T08:31:35.951Z,17.80
2022-11-17T08:33:37.748Z,17.80
2022-11-17T08:35:40.255Z,17.80
2022-11-17T08:37:43.205Z,17.80
2022-11-17T08:39:45.066Z,17.80
2022-11-17T08:41:46.824Z,17.80
2022-11-17T08:43:50.537Z,17.80
2022-11-17T08:45:52.312Z,17.80
2022-11-17T08:47:55.467Z,17.80
2022-11-17T08:49:57.215Z,17.80
2022-11-17T08:51:59.068Z,17.80
2022-11-17T08:54:00.827Z,17.80
2022-11-17T08:56:06.335Z,17.80
2022-11-17T08:58:08.351Z,17.80
2022-11-17T09:00:10.429Z,17.80
2022-11-17T09:02:12.449Z,17.80
2022-11-17T09:04:14.347Z,17.80
2022-11-17T09:06:16.718Z,17.80
2022-11-17T09:10:40.335Z,17.80
2022-11-17T09:12:42.171Z,17.80
2022-11-17T09:14:44.125Z,17.80
2022-11-17T09:16:45.974Z,17.80
2022-11-17T09:18:47.682Z,17.80
2022-11-17T09:20:49.475Z,17.80
2022-11-17T09:22:51.225Z,17.80
2022-11-17T09:24:53.087Z,17.80
2022-11-17T09:26:55.074Z,17.90
2022-11-17T09:29:00.963Z,17.80
2022-11-17T09:31:06.594Z,17.90
2022-11-17T09:33:08.418Z,17.80
2022-11-17T09:35:10.214Z,17.80
2022-11-17T09:37:11.987Z,17.80
2022-11-17T09:39:13.694Z,17.80
2022-11-17T09:41:15.751Z,17.80
2022-11-17T09:43:25.446Z,17.80
2022-11-17T09:45:30.130Z,17.90
2022-11-17T09:47:43.139Z,17.90
2022-11-17T09:49:44.862Z,17.80
2022-11-17T09:51:48.427Z,17.80
2022-11-17T09:54:16.537Z,17.80
2022-11-17T09:56:18.394Z,17.80
2022-11-17T09:58:24.074Z,17.80
2022-11-17T10:00:25.965Z,17.80
2022-11-17T10:02:28.043Z,17.90
2022-11-17T10:04:29.879Z,17.80
2022-11-17T10:06:31.927Z,17.80
2022-11-17T10:08:33.716Z,17.80
2022-11-17T10:10:51.801Z,17.90
2022-11-17T10:12:57.222Z,17.80
2022-11-17T10:15:08.114Z,17.80
2022-11-17T10:17:09.912Z,17.80
2022-11-17T10:19:14.613Z,17.80
2022-11-17T10:21:16.369Z,17.80
2022-11-17T10:23:19.437Z,17.80
2022-11-17T10:25:23.213Z,17.80
2022-11-17T10:27:27.208Z,17.80
2022-11-17T10:29:28.951Z,17.80
2022-11-17T10:31:39.201Z,17.80
2022-11-17T10:33:42.801Z,17.90
2022-11-17T10:35:54.393Z,17.80
2022-11-17T10:38:13.174Z,17.90
2022-11-17T10:40:22.033Z,17.80
2022-11-17T10:42:27.097Z,17.90
2022-11-17T10:44:30.099Z,17.80
2022-11-17T10:46:43.098Z,17.90
2022-11-17T10:48:59.025Z,17.90
2022-11-17T10:51:01.751Z,17.90
2022-11-17T10:53:41.380Z,17.80
2022-11-17T10:55:53.150Z,17.80
2022-11-17T10:58:24.108Z,17.80
2022-11-17T11:00:25.961Z,17.80
2022-11-17T11:02:29.973Z,17.90
2022-11-17T11:04:38.994Z,17.90
2022-11-17T11:06:40.733Z,17.90
2022-11-17T11:08:54.076Z,17.90
2022-11-17T11:10:58.139Z,17.90
2022-11-17T11:13:06.175Z,17.90
2022-11-17T11:15:13.931Z,17.90
2022-11-17T11:17:16.803Z,17.90
2022-11-17T11:19:19.923Z,17.90
2022-11-17T11:21:35.165Z,17.90
2022-11-17T11:23:44.531Z,17.90
2022-11-17T11:25:51.848Z,17.90
2022-11-17T11:28:08.729Z,17.90
2022-11-17T11:30:15.398Z,17.90
2022-11-17T11:32:26.426Z,17.90
2022-11-17T11:34:41.958Z,17.90
2022-11-17T11:36:53.113Z,17.90
2022-11-17T11:39:12.499Z,17.90
2022-11-17T11:41:20.512Z,17.90
2022-11-17T11:43:33.380Z,17.90
2022-11-17T11:45:35.069Z,17.90
2022-11-17T11:47:39.504Z,17.90
2022-11-17T11:49:44.137Z,17.90
2022-11-17T11:51:48.711Z,17.90
2022-11-17T11:53:54.399Z,17.90
2022-11-17T11:56:07.534Z,17.90
2022-11-17T11:58:15.210Z,17.90
2022-11-17T12:00:17.707Z,17.90
2022-11-17T12:02:25.017Z,17.90
2022-11-17T12:04:37.350Z,17.90
2022-11-17T12:06:57.896Z,18.00
2022-11-17T12:09:09.286Z,17.90
2022-11-17T12:11:12.559Z,18.00
2022-11-17T12:13:15.425Z,18.00
2022-11-17T12:15:19.881Z,18.00
2022-11-17T12:17:21.862Z,18.00
2022-11-17T12:19:42.025Z,18.00
2022-11-17T12:21:43.848Z,18.00
2022-11-17T12:23:45.566Z,18.00
2022-11-17T12:25:53.499Z,18.10
2022-11-17T12:27:56.114Z,18.10
2022-11-17T12:29:58.111Z,18.10
2022-11-17T12:32:00.793Z,18.20
2022-11-17T12:34:04.459Z,18.20
2022-11-17T12:36:30.058Z,18.20
2022-11-17T12:38:32.153Z,18.20
2022-11-17T12:40:40.019Z,18.30
2022-11-17T12:43:01.727Z,18.30
2022-11-17T12:45:07.873Z,18.30
2022-11-17T12:47:15.637Z,18.30
2022-11-17T12:49:25.821Z,18.30
2022-11-17T12:51:35.109Z,18.30
2022-11-17T12:53:48.004Z,18.40
2022-11-17T12:55:58.912Z,18.30
2022-11-17T12:58:00.625Z,18.40
2022-11-17T13:00:06.258Z,18.40
2022-11-17T13:02:10.738Z,18.40
2022-11-17T13:04:16.837Z,18.40
2022-11-17T13:06:36.083Z,18.40
2022-11-17T13:08:38.353Z,18.40
2022-11-17T13:10:40.107Z,18.40
2022-11-17T13:12:41.952Z,18.40
2022-11-17T13:14:56.960Z,18.40
2022-11-17T13:16:59.387Z,18.40
2022-11-17T13:19:01.140Z,18.40
2022-11-17T13:21:03.895Z,18.50
2022-11-17T13:23:07.071Z,18.40
2022-11-17T13:25:13.025Z,18.40
2022-11-17T13:27:20.583Z,18.50
2022-11-17T13:29:22.370Z,18.50
2022-11-17T13:31:24.206Z,18.50
2022-11-17T13:33:26.311Z,18.50
2022-11-17T13:35:29.568Z,18.50
2022-11-17T13:37:31.761Z,18.50
2022-11-17T13:39:33.470Z,18.60
2022-11-17T13:41:39.114Z,18.50
2022-11-17T13:43:41.499Z,18.50
2022-11-17T13:45:43.458Z,18.50
2022-11-17T13:47:48.923Z,18.60
2022-11-17T13:49:50.746Z,18.60
2022-11-17T13:51:52.575Z,18.60
2022-11-17T13:53:57.452Z,18.60
2022-11-17T13:55:59.494Z,18.60
2022-11-17T13:58:06.631Z,18.60
2022-11-17T14:00:16.037Z,18.60
2022-11-17T14:02:17.837Z,18.60
2022-11-17T14:04:23.444Z,18.60
2022-11-17T14:06:25.715Z,18.70
2022-11-17T14:08:30.758Z,18.60
2022-11-17T14:10:33.587Z,18.70
2022-11-17T14:12:35.303Z,18.70
2022-11-17T14:14:44.242Z,18.70
2022-11-17T14:16:46.130Z,18.70
2022-11-17T14:18:58.593Z,18.70
2022-11-17T14:21:18.502Z,18.70
2022-11-17T14:23:20.320Z,18.70
2022-11-17T14:25:22.050Z,18.70
2022-11-17T14:27:29.538Z,18.70
2022-11-17T14:29:31.246Z,18.70
2022-11-17T14:31:33.114Z,18.70
2022-11-17T14:33:34.966Z,18.70
2022-11-17T14:35:36.764Z,18.70
2022-11-17T14:37:38.794Z,18.70
2022-11-17T14:39:40.752Z,18.70
2022-11-17T14:41:46.489Z,18.80
2022-11-17T14:43:48.578Z,18.70
2022-11-17T14:45:50.814Z,18.70
2022-11-17T14:47:52.983Z,18.80
2022-11-17T14:49:55.235Z,18.80
2022-11-17T14:51:57.397Z,18.70
2022-11-17T14:53:59.593Z,18.80
2022-11-17T14:56:07.982Z,18.70
2022-11-17T14:58:10.264Z,18.70
2022-11-17T15:00:17.382Z,18.70
2022-11-17T15:02:22.036Z,18.80
2022-11-17T15:06:46.323Z,18.80
2022-11-17T15:08:53.206Z,18.80
2022-11-17T15:10:55.389Z,18.80
2022-11-17T15:12:57.488Z,18.80
2022-11-17T15:14:59.623Z,18.80
2022-11-17T15:17:01.730Z,18.70
2022-11-17T15:19:03.841Z,18.80
2022-11-17T15:21:06.747Z,18.90
2022-11-17T15:23:08.695Z,18.70
2022-11-17T15:25:10.926Z,18.80
2022-11-17T15:27:20.134Z,18.80
2022-11-17T15:29:22.204Z,18.80
2022-11-17T15:31:24.244Z,18.70
2022-11-17T15:33:26.349Z,18.70
2022-11-17T15:35:28.330Z,18.80
2022-11-17T15:37:30.678Z,18.80
2022-11-17T15:39:32.694Z,18.80
2022-11-17T15:41:35.520Z,18.70
2022-11-17T15:43:38.529Z,18.80
2022-11-17T15:45:40.587Z,18.80
2022-11-17T15:47:43.232Z,18.80
2022-11-17T15:49:45.038Z,18.80
2022-11-17T15:51:46.765Z,18.80
2022-11-17T15:53:49.295Z,18.80
2022-11-17T15:55:51.015Z,18.80
2022-11-17T15:57:53.423Z,18.80
2022-11-17T15:59:55.193Z,18.80
2022-11-17T16:01:57.110Z,18.80
2022-11-17T16:03:58.865Z,18.80
2022-11-17T16:06:00.728Z,18.80
2022-11-17T16:08:02.497Z,18.80
2022-11-17T16:10:04.468Z,18.80
2022-11-17T16:12:06.289Z,18.80
2022-11-17T16:14:08.244Z,18.80
2022-11-17T16:16:12.598Z,18.80
2022-11-17T16:18:14.468Z,18.80
2022-11-17T16:20:16.339Z,18.80
2022-11-17T16:22:18.254Z,18.80
2022-11-17T16:24:20.019Z,18.80
2022-11-17T16:26:22.494Z,18.80
2022-11-17T16:28:24.227Z,18.80
2022-11-17T16:30:29.253Z,18.80
2022-11-17T16:32:33.159Z,18.80
2022-11-17T16:34:35.972Z,18.80
2022-11-17T16:36:38.766Z,18.80
2022-11-17T16:38:49.850Z,18.80
2022-11-17T16:41:01.524Z,18.80
2022-11-17T16:43:03.343Z,18.80
2022-11-17T16:45:05.305Z,18.80
2022-11-17T16:47:07.120Z,18.80
2022-11-17T16:49:10.746Z,18.80
2022-11-17T16:51:12.954Z,18.80
2022-11-17T16:53:14.835Z,18.80
2022-11-17T16:55:16.723Z,18.80
2022-11-17T16:57:18.508Z,18.80
2022-11-17T16:59:20.489Z,18.80
2022-11-17T17:01:24.100Z,18.80
2022-11-17T17:03:25.949Z,18.80
2022-11-17T17:05:27.693Z,18.80
2022-11-17T17:07:29.532Z,18.80
2022-11-17T17:09:31.377Z,18.80
2022-11-17T17:11:34.965Z,18.80
2022-11-17T17:13:36.729Z,18.80
2022-11-17T17:15:38.482Z,18.80
2022-11-17T17:17:40.216Z,18.80
2022-11-17T17:19:42.026Z,18.80
2022-11-17T17:21:43.808Z,18.80
2022-11-17T17:23:45.797Z,18.80
2022-11-17T17:25:47.539Z,18.80
2022-11-17T17:27:49.374Z,18.80
2022-11-17T17:29:51.086Z,18.80
2022-11-17T17:31:52.867Z,18.80
2022-11-17T17:33:54.893Z,18.80
2022-11-17T17:36:00.905Z,18.80
2022-11-17T17:38:02.674Z,18.80
2022-11-17T17:40:04.668Z,18.80
2022-11-17T17:42:06.378Z,18.80
2022-11-17T17:44:08.564Z,18.80
2022-11-17T17:46:15.461Z,18.80
2022-11-17T17:48:17.604Z,18.80
2022-11-17T17:50:19.348Z,18.80
2022-11-17T17:52:21.210Z,18.70
2022-11-17T17:54:22.954Z,18.70
2022-11-17T17:56:24.985Z,18.80
2022-11-17T17:58:27.036Z,18.80
2022-11-17T18:00:28.888Z,18.70
2022-11-17T18:02:30.658Z,18.70
2022-11-17T18:04:32.433Z,18.70
2022-11-17T18:06:38.212Z,18.70
2022-11-17T18:08:40.088Z,18.70
2022-11-17T18:10:41.868Z,18.70
2022-11-17T18:12:43.678Z,18.70
2022-11-17T18:14:45.590Z,18.70
2022-11-17T18:16:48.363Z,18.70
2022-11-17T18:18:55.090Z,18.70
2022-11-17T18:21:04.667Z,18.70
2022-11-17T18:23:06.400Z,18.70
2022-11-17T18:25:09.168Z,18.70
2022-11-17T18:27:12.293Z,18.70
2022-11-17T18:29:15.714Z,18.70
2022-11-17T18:31:18.246Z,18.70
2022-11-17T18:33:20.016Z,18.70
2022-11-17T18:35:21.756Z,18.70
2022-11-17T18:37:23.540Z,18.70
2022-11-17T18:39:25.369Z,18.70
2022-11-17T18:41:28.141Z,18.70
2022-11-17T18:43:30.697Z,18.70
2022-11-17T18:45:35.670Z,18.70
2022-11-17T18:47:37.399Z,18.70
2022-11-17T18:49:39.193Z,18.70
2022-11-17T18:51:41.004Z,18.70
2022-11-17T18:53:43.103Z,18.70
2022-11-17T18:55:44.837Z,18.70
2022-11-17T18:57:46.687Z,18.70
2022-11-17T18:59:48.402Z,18.60
2022-11-17T19:01:50.390Z,18.70
2022-11-17T19:03:52.810Z,18.70
2022-11-17T19:05:54.625Z,18.70
2022-11-17T19:07:56.370Z,18.70
2022-11-17T19:09:58.143Z,18.60
2022-11-17T19:11:59.895Z,18.70
2022-11-17T19:14:02.222Z,18.70
2022-11-17T19:16:11.613Z,18.60
2022-11-17T19:18:13.574Z,18.70
2022-11-17T19:20:15.459Z,18.60
2022-11-17T19:22:17.313Z,18.60
2022-11-17T19:24:19.041Z,18.60
2022-11-17T19:26:23.926Z,18.60
2022-11-17T19:28:25.669Z,18.60
2022-11-17T19:30:27.495Z,18.60
2022-11-17T19:32:29.219Z,18.60
2022-11-17T19:34:31.012Z,18.60
2022-11-17T19:36:33.776Z,18.60
2022-11-17T19:38:36.346Z,18.60
2022-11-17T19:40:38.058Z,18.60
2022-11-17T19:42:39.870Z,18.60
2022-11-17T19:44:42.690Z,18.60
2022-11-17T19:46:44.529Z,18.60
2022-11-17T19:48:46.282Z,18.60
2022-11-17T19:50:53.004Z,18.60
2022-11-17T19:52:57.471Z,18.60
2022-11-17T19:54:59.284Z,18.60
2022-11-17T19:57:01.164Z,18.60
2022-11-17T19:59:03.044Z,18.60
2022-11-17T20:01:11.745Z,18.60
2022-11-17T20:03:13.637Z,18.60
2022-11-17T20:05:15.359Z,18.60
2022-11-17T20:07:17.308Z,18.60
2022-11-17T20:09:19.399Z,18.60
2022-11-17T20:11:22.460Z,18.60
2022-11-17T20:13:24.173Z,18.60
2022-11-17T20:15:39.264Z,18.60
2022-11-17T20:17:40.993Z,18.60
2022-11-17T20:19:42.813Z,18.60
2022-11-17T20:21:46.146Z,18.60
2022-11-17T20:23:48.014Z,18.60
2022-11-17T20:25:49.853Z,18.60
2022-11-17T20:27:51.871Z,18.60
2022-11-17T20:29:53.597Z,18.60
2022-11-17T20:31:55.358Z,18.60
2022-11-17T20:33:57.746Z,18.60
2022-11-17T20:36:00.160Z,18.60
2022-11-17T20:38:01.904Z,18.60
2022-11-17T20:40:03.866Z,18.60
2022-11-17T20:42:05.585Z,18.60
2022-11-17T20:44:07.419Z,18.60
2022-11-17T20:46:09.204Z,18.60
2022-11-17T20:48:10.963Z,18.60
2022-11-17T20:50:12.721Z,18.60
2022-11-17T20:52:15.738Z,18.60
2022-11-17T20:54:17.442Z,18.60
2022-11-17T20:56:19.303Z,18.60
2022-11-17T20:58:21.034Z,18.60
2022-11-17T21:00:22.839Z,18.60
2022-11-17T21:02:24.692Z,18.60
2022-11-17T21:04:26.493Z,18.60
2022-11-17T21:06:28.207Z,18.60
2022-11-17T21:08:31.112Z,18.60
2022-11-17T21:10:32.853Z,18.60
2022-11-17T21:12:34.617Z,18.60
2022-11-17T21:14:36.331Z,18.50
2022-11-17T21:16:39.174Z,18.50
2022-11-17T21:18:47.578Z,18.50
2022-11-17T21:20:49.329Z,18.60
2022-11-17T21:22:51.959Z,18.60
2022-11-17T21:24:53.761Z,18.50
2022-11-17T21:26:55.493Z,18.50
2022-11-17T21:29:03.236Z,18.50
2022-11-17T21:31:09.868Z,18.50
2022-11-17T21:33:11.712Z,18.50
2022-11-17T21:35:13.482Z,18.50
2022-11-17T21:37:15.230Z,18.50
2022-11-17T21:39:18.272Z,18.50
2022-11-17T21:41:22.092Z,18.50
2022-11-17T21:43:23.831Z,18.50
2022-11-17T21:45:25.586Z,18.50
2022-11-17T21:47:27.331Z,18.50
2022-11-17T21:49:29.136Z,18.50
2022-11-17T21:51:32.050Z,18.50
2022-11-17T21:53:34.236Z,18.50
2022-11-17T21:55:35.933Z,18.50
2022-11-17T21:57:37.750Z,18.50
2022-11-17T21:59:39.521Z,18.50
2022-11-17T22:01:41.371Z,18.50
2022-11-17T22:03:43.145Z,18.50
2022-11-17T22:05:44.974Z,18.50
2022-11-17T22:07:46.686Z,18.50
2022-11-17T22:09:48.434Z,18.50
2022-11-17T22:11:50.185Z,18.50
2022-11-17T22:13:51.973Z,18.50
2022-11-17T22:15:53.682Z,18.50
2022-11-17T22:17:55.469Z,18.50
2022-11-17T22:19:57.199Z,18.50
2022-11-17T22:21:58.974Z,18.50
2022-11-17T22:24:00.718Z,18.50
2022-11-17T22:26:05.003Z,18.50
2022-11-17T22:28:06.717Z,18.50
2022-11-17T22:30:08.905Z,18.40
2022-11-17T22:32:10.634Z,18.40
2022-11-17T22:34:12.695Z,18.50
2022-11-17T22:36:14.775Z,18.40
2022-11-17T22:38:16.653Z,18.50
2022-11-17T22:40:18.363Z,18.50
2022-11-17T22:42:20.170Z,18.50
2022-11-17T22:44:21.903Z,18.50
2022-11-17T22:46:24.940Z,18.50
2022-11-17T22:48:26.710Z,18.50
2022-11-17T22:50:28.517Z,18.40
2022-11-17T22:52:30.242Z,18.50
2022-11-17T22:54:32.066Z,18.50
2022-11-17T22:56:33.874Z,18.50
2022-11-17T22:58:35.946Z,18.50
2022-11-17T23:00:37.697Z,18.40
2022-11-17T23:02:39.536Z,18.40
2022-11-17T23:04:41.253Z,18.40
2022-11-17T23:06:43.584Z,18.50
2022-11-17T23:08:45.290Z,18.50
2022-11-17T23:10:47.097Z,18.50
2022-11-17T23:12:50.029Z,18.50
2022-11-17T23:14:52.568Z,18.40
2022-11-17T23:16:54.298Z,18.50
2022-11-17T23:18:56.610Z,18.50
2022-11-17T23:20:58.638Z,18.40
2022-11-17T23:23:00.391Z,18.40
2022-11-17T23:25:02.488Z,18.40
2022-11-17T23:27:04.330Z,18.40
2022-11-17T23:29:06.238Z,18.40
2022-11-17T23:31:10.114Z,18.40
2022-11-17T23:33:11.845Z,18.50
2022-11-17T23:35:13.662Z,18.50
2022-11-17T23:37:15.411Z,18.40
2022-11-17T23:39:17.327Z,18.40
2022-11-17T23:41:20.043Z,18.40
2022-11-17T23:43:21.897Z,18.40
2022-11-17T23:45:23.625Z,18.40
2022-11-17T23:47:25.405Z,18.40
2022-11-17T23:49:27.165Z,18.40
2022-11-17T23:51:28.945Z,18.40
2022-11-17T23:53:30.882Z,18.50
2022-11-17T23:55:32.684Z,18.40
2022-11-17T23:57:34.426Z,18.40
2022-11-17T23:59:36.228Z,18.50
